Time;durP1;ratioP1;P1;durP2;ratioP2;P2;SDS_P1;SDS_P2;PMS_P1;PMS_P2;Temp;Humidity;BMP_temperature;BMP_pressure;BME280_temperature;BME280_humidity;BME280_pressure;Samples;Min_cycle;Max_cycle;Signal;HPM_P1;HPM_P2
2022/07/30 00:00:17;;;;;;;9.27;6.80;;;;;;;18.31;90.95;100672.59;8313668;28;20452;-50
2022/07/30 00:04:18;;;;;;;7.95;6.50;;;;;;;17.83;93.63;100683.97;8317582;28;20371;-50
2022/07/30 00:08:20;;;;;;;8.82;6.25;;;;;;;18.03;92.44;100679.72;8314813;28;20508;-50
2022/07/30 00:12:20;;;;;;;8.02;6.03;;;;;;;18.13;91.89;100683.91;8312676;28;20072;-52
2022/07/30 00:16:21;;;;;;;9.60;7.03;;;;;;;17.95;93.11;100683.38;8320132;28;20068;-48
2022/07/30 00:20:21;;;;;;;7.00;6.25;;;;;;;18.10;92.07;100681.53;8322425;28;20040;-52
2022/07/30 00:24:22;;;;;;;11.15;6.80;;;;;;;18.14;90.02;100682.84;8320887;28;20026;-50
2022/07/30 00:28:23;;;;;;;12.63;6.88;;;;;;;17.87;91.73;100680.69;8324931;28;20120;-51
2022/07/30 00:32:23;;;;;;;10.98;7.10;;;;;;;17.93;91.00;100690.06;8320235;28;20049;-49
2022/07/30 00:36:23;;;;;;;13.77;7.78;;;;;;;17.49;93.37;100676.19;8317587;28;20030;-49
2022/07/30 00:40:24;;;;;;;11.52;7.70;;;;;;;17.49;93.36;100690.72;8298137;28;20033;-51
2022/07/30 00:44:25;;;;;;;15.23;7.88;;;;;;;17.39;93.95;100686.50;8297275;28;20112;-52
2022/07/30 00:48:25;;;;;;;15.02;7.82;;;;;;;17.63;93.33;100678.16;8297011;28;20045;-49
2022/07/30 00:52:25;;;;;;;15.60;7.80;;;;;;;17.42;93.13;100686.13;8298504;28;20423;-49
2022/07/30 00:56:26;;;;;;;14.25;7.88;;;;;;;17.20;95.50;100695.16;8328630;28;20044;-49
2022/07/30 01:00:27;;;;;;;15.27;9.05;;;;;;;17.48;93.81;100701.84;8303358;28;20033;-48
2022/07/30 01:04:29;;;;;;;19.17;7.80;;;;;;;17.23;94.82;100681.13;8296110;28;20405;-52
2022/07/30 01:08:29;;;;;;;15.13;7.40;;;;;;;17.45;93.22;100686.63;8296442;28;20512;-48
2022/07/30 01:12:30;;;;;;;16.15;7.28;;;;;;;17.78;90.88;100700.09;8296452;28;20394;-49
2022/07/30 01:16:32;;;;;;;9.55;6.32;;;;;;;18.11;88.64;100694.16;8324997;28;20045;-51
2022/07/30 01:20:57;;;;;;;15.35;6.93;;;;;;;18.22;87.75;100691.00;8327703;28;20044;-50
2022/07/30 01:25:21;;;;;;;16.10;7.03;;;;;;;17.91;88.83;100693.00;8291154;28;20049;-52
2022/07/30 01:29:24;;;;;;;13.02;7.22;;;;;;;18.09;88.71;100690.78;8298375;28;20041;-51
2022/07/30 01:33:26;;;;;;;19.35;7.07;;;;;;;18.27;87.70;100688.53;8295754;28;20038;-51
2022/07/30 01:37:29;;;;;;;13.95;7.50;;;;;;;18.20;87.91;100698.53;8295979;28;20490;-49
2022/07/30 01:41:30;;;;;;;13.40;7.07;;;;;;;17.83;90.15;100695.78;8295466;28;20033;-49
2022/07/30 01:45:31;;;;;;;16.40;7.35;;;;;;;17.85;90.44;100693.72;8295926;28;20038;-49
2022/07/30 01:49:35;;;;;;;11.75;6.82;;;;;;;17.90;89.60;100702.22;8295309;28;20038;-49
2022/07/30 01:53:37;;;;;;;12.53;7.03;;;;;;;18.04;88.72;100700.56;8305880;28;20064;-48
2022/07/30 01:57:38;;;;;;;11.20;6.70;;;;;;;18.08;88.40;100705.47;8324083;28;20277;-49
2022/07/30 02:01:39;;;;;;;16.33;6.53;;;;;;;18.17;87.46;100707.13;8295182;28;20509;-49
2022/07/30 02:05:41;;;;;;;14.80;6.60;;;;;;;18.21;87.03;100705.69;8294635;28;20745;-51
2022/07/30 02:10:03;;;;;;;16.92;7.53;;;;;;;18.33;86.15;100709.69;8294757;28;20044;-48
2022/07/30 02:14:10;;;;;;;13.27;6.43;;;;;;;18.33;86.42;100712.44;8303476;28;20117;-52
2022/07/30 02:18:35;;;;;;;11.15;6.30;;;;;;;18.31;86.26;100717.25;8326131;28;20113;-51
2022/07/30 02:22:41;;;;;;;11.98;6.68;;;;;;;18.33;86.24;100709.69;8325410;28;20095;-49
2022/07/30 02:26:45;;;;;;;14.25;6.93;;;;;;;18.33;86.08;100708.88;8326147;28;20037;-50
2022/07/30 02:30:50;;;;;;;13.03;6.50;;;;;;;18.26;86.68;100708.75;8301406;28;20038;-51
2022/07/30 02:34:56;;;;;;;15.27;7.10;;;;;;;18.15;87.20;100711.94;8294222;28;20068;-49
2022/07/30 02:38:58;;;;;;;11.93;7.30;;;;;;;18.13;87.54;100716.75;8293824;28;20453;-50
2022/07/30 02:43:00;;;;;;;11.30;7.25;;;;;;;18.10;87.89;100708.03;8294102;28;20033;-49
2022/07/30 02:47:02;;;;;;;17.42;6.72;;;;;;;18.10;88.00;100713.50;8296603;28;20037;-48
2022/07/30 02:51:04;;;;;;;11.50;7.18;;;;;;;18.01;88.36;100720.94;8293404;28;20099;-51
2022/07/30 02:55:06;;;;;;;10.38;6.88;;;;;;;17.99;88.89;100712.06;8315925;28;20033;-50
2022/07/30 02:59:09;;;;;;;21.17;8.27;;;;;;;17.95;89.03;100710.72;8311287;28;20076;-52
2022/07/30 03:03:11;;;;;;;17.65;7.55;;;;;;;17.91;89.08;100717.59;8293818;28;20065;-52
2022/07/30 03:07:13;;;;;;;12.13;6.90;;;;;;;17.92;89.17;100722.03;8294281;28;20034;-49
2022/07/30 03:11:17;;;;;;;17.40;7.85;;;;;;;17.77;90.04;100721.13;8293327;28;20046;-49
2022/07/30 03:15:18;;;;;;;15.32;8.00;;;;;;;17.69;90.67;100715.72;8312618;28;20404;-48
2022/07/30 03:19:22;;;;;;;10.43;7.50;;;;;;;17.71;90.63;100716.38;8324879;28;20033;-49
2022/07/30 03:23:24;;;;;;;;;;;;;;;17.71;90.65;100713.66;8324777;28;20029;-52
2022/07/30 03:27:25;;;;;;;11.48;7.90;;;;;;;17.67;90.86;100720.50;8325202;28;19916;-48
2022/07/30 03:31:26;;;;;;;12.98;7.95;;;;;;;17.58;91.57;100718.88;8296279;28;20057;-52
2022/07/30 03:35:27;;;;;;;19.33;8.18;;;;;;;17.47;92.35;100722.00;8293415;28;20057;-49
2022/07/30 03:39:28;;;;;;;24.00;8.15;;;;;;;17.53;92.52;100721.28;8293736;28;20418;-51
2022/07/30 03:43:29;;;;;;;16.42;7.85;;;;;;;17.44;92.95;100727.81;8293576;28;20125;-48
2022/07/30 03:47:32;;;;;;;22.80;8.65;;;;;;;17.32;94.32;100740.16;8293569;28;20375;-49
2022/07/30 03:51:34;;;;;;;16.55;9.07;;;;;;;17.35;94.49;100739.78;8294958;28;20042;-48
2022/07/30 03:55:35;;;;;;;19.13;9.10;;;;;;;17.39;94.64;100752.09;8325324;28;20087;-48
2022/07/30 03:59:35;;;;;;;19.48;8.75;;;;;;;17.35;94.76;100748.00;8313435;28;20073;-50
2022/07/30 04:03:36;;;;;;;17.85;9.95;;;;;;;17.35;94.52;100757.06;8299162;28;20108;-49
2022/07/30 04:07:36;;;;;;;22.40;10.10;;;;;;;17.36;94.61;100760.66;8299229;28;20045;-50
2022/07/30 04:11:38;;;;;;;18.40;10.15;;;;;;;17.31;95.44;100763.06;8298799;28;20065;-48
2022/07/30 04:15:50;;;;;;;21.98;10.15;;;;;;;17.33;95.95;100761.00;8320375;28;20553;-50
2022/07/30 04:19:56;;;;;;;18.35;10.65;;;;;;;17.43;95.69;100769.88;8330264;28;20041;-51
2022/07/30 04:23:59;;;;;;;17.70;10.93;;;;;;;17.47;95.87;100768.47;8330073;28;20040;-50
2022/07/30 04:28:00;;;;;;;21.55;10.43;;;;;;;17.45;95.93;100773.28;8328612;28;20087;-48
2022/07/30 04:32:00;;;;;;;16.00;9.93;;;;;;;17.46;96.25;100781.31;8297948;28;20046;-52
2022/07/30 04:36:06;;;;;;;20.90;10.27;;;;;;;17.48;96.50;100784.69;8298291;28;20033;-48
2022/07/30 04:40:07;;;;;;;20.85;11.55;;;;;;;17.52;96.42;100788.78;8323014;28;20048;-48
2022/07/30 04:44:07;;;;;;;15.45;9.82;;;;;;;17.57;96.17;100794.56;8303917;28;20048;-49
2022/07/30 04:48:08;;;;;;;15.85;10.65;;;;;;;17.60;96.46;100787.91;8297617;28;20397;-48
2022/07/30 04:52:09;;;;;;;18.27;10.75;;;;;;;17.70;95.74;100799.47;8297164;28;20116;-49
2022/07/30 04:56:12;;;;;;;16.73;10.52;;;;;;;17.59;96.30;100806.19;8328562;28;20037;-48
2022/07/30 05:00:13;;;;;;;22.20;11.65;;;;;;;17.65;97.19;100809.25;8307302;28;20499;-49
2022/07/30 05:04:15;;;;;;;22.48;12.38;;;;;;;17.84;97.08;100815.09;8296637;28;20466;-48
2022/07/30 05:08:15;;;;;;;30.90;13.50;;;;;;;17.95;97.65;100814.69;8297056;28;20037;-49
2022/07/30 05:12:16;;;;;;;28.88;16.20;;;;;;;18.09;98.37;100816.66;8296712;28;20064;-49
2022/07/30 05:16:16;;;;;;;36.65;17.20;;;;;;;18.25;98.98;100816.53;8323557;28;20033;-50
2022/07/30 05:20:17;;;;;;;31.50;16.75;;;;;;;18.42;97.85;100818.13;8328485;28;20091;-49
2022/07/30 05:24:17;;;;;;;32.22;16.52;;;;;;;18.53;96.94;100825.06;8327968;28;20040;-48
2022/07/30 05:28:18;;;;;;;31.77;15.77;;;;;;;18.62;96.51;100829.44;8328212;28;20044;-48
2022/07/30 05:32:18;;;;;;;31.60;16.53;;;;;;;18.86;95.65;100827.34;8327741;28;20087;-49
2022/07/30 05:36:20;;;;;;;40.97;16.23;;;;;;;19.06;94.33;100833.97;8327837;28;20280;-51
2022/07/30 05:40:21;;;;;;;32.47;17.08;;;;;;;19.17;94.25;100828.03;8327841;28;20034;-50
2022/07/30 05:44:21;;;;;;;29.90;16.42;;;;;;;19.31;92.98;100827.19;8327254;28;20488;-50
2022/07/30 05:48:22;;;;;;;29.88;16.60;;;;;;;19.35;93.04;100823.06;8327524;28;20445;-49
2022/07/30 05:52:22;;;;;;;35.25;17.85;;;;;;;19.42;93.08;100832.22;8326850;28;20040;-48
2022/07/30 05:56:23;;;;;;;37.80;16.80;;;;;;;19.61;91.68;100827.19;8327495;28;20038;-48
2022/07/30 06:00:23;;;;;;;29.40;17.13;;;;;;;19.69;90.68;100830.66;8303693;28;20656;-49
2022/07/30 06:04:23;;;;;;;32.92;17.00;;;;;;;19.89;90.08;100840.00;8335509;28;20042;-49
2022/07/30 06:08:24;;;;;;;34.50;18.13;;;;;;;19.90;88.98;100832.59;8307692;28;20061;-49
2022/07/30 06:12:26;;;;;;;39.42;18.25;;;;;;;19.86;89.21;100836.78;8295040;28;20710;-50
2022/07/30 06:16:27;;;;;;;38.00;18.77;;;;;;;20.02;89.68;100842.03;8301564;28;20030;-52
2022/07/30 06:20:27;;;;;;;32.83;17.50;;;;;;;20.11;87.69;100846.38;8295085;28;20061;-48
2022/07/30 06:24:28;;;;;;;34.28;17.52;;;;;;;20.17;87.99;100845.63;8312340;28;20481;-51
2022/07/30 06:28:28;;;;;;;37.90;18.63;;;;;;;20.26;87.86;100849.97;8315262;28;20375;-52
2022/07/30 06:32:29;;;;;;;39.95;18.98;;;;;;;20.31;86.33;100858.47;8294292;28;20324;-48
2022/07/30 06:36:29;;;;;;;32.97;17.13;;;;;;;20.36;87.22;100861.47;8294744;28;20045;-49
2022/07/30 06:40:29;;;;;;;37.95;18.30;;;;;;;20.51;86.97;100860.38;8294922;28;20034;-51
2022/07/30 06:44:30;;;;;;;36.33;16.20;;;;;;;20.75;85.98;100865.47;8293962;28;20116;-50
2022/07/30 06:48:31;;;;;;;33.03;17.42;;;;;;;20.89;84.62;100874.69;8294450;28;20042;-49
2022/07/30 06:52:32;;;;;;;31.52;16.70;;;;;;;21.00;86.18;100872.25;8312578;28;20519;-48
2022/07/30 06:56:32;;;;;;;28.85;15.70;;;;;;;21.19;84.63;100877.06;8312197;28;20053;-48
2022/07/30 07:00:32;;;;;;;27.85;14.52;;;;;;;21.24;82.85;100881.97;8318525;28;20051;-49
2022/07/30 07:04:33;;;;;;;24.90;14.48;;;;;;;21.47;83.79;100879.78;8294715;28;20129;-52
2022/07/30 07:08:36;;;;;;;25.92;13.48;;;;;;;21.54;82.35;100880.69;8292368;28;20045;-49
2022/07/30 07:12:37;;;;;;;24.40;13.60;;;;;;;21.70;80.77;100885.84;8299881;28;20044;-49
2022/07/30 07:16:37;;;;;;;30.70;14.93;;;;;;;21.83;81.89;100891.47;8309972;28;20042;-50
2022/07/30 07:20:37;;;;;;;29.70;12.93;;;;;;;21.87;80.87;100889.16;8294585;28;20042;-52
2022/07/30 07:24:38;;;;;;;30.40;14.17;;;;;;;22.18;80.21;100884.84;8302636;28;20069;-51
2022/07/30 07:28:39;;;;;;;28.93;14.87;;;;;;;22.21;80.59;100884.44;8298703;28;20734;-50
2022/07/30 07:32:39;;;;;;;20.35;13.02;;;;;;;21.95;80.26;100889.81;8298598;28;20285;-49
2022/07/30 07:36:39;;;;;;;25.58;12.50;;;;;;;21.83;80.24;100902.47;8299808;28;20565;-49
2022/07/30 07:40:40;;;;;;;22.27;12.47;;;;;;;22.29;80.69;100897.19;8299852;28;20476;-49
2022/07/30 07:44:40;;;;;;;27.20;15.30;;;;;;;22.00;78.72;100903.84;8298916;28;20284;-48
2022/07/30 07:48:43;;;;;;;25.40;13.33;;;;;;;22.11;79.36;100900.47;8298548;28;20053;-51
2022/07/30 07:52:43;;;;;;;26.27;13.80;;;;;;;22.22;81.01;100894.38;8302393;28;20351;-50
2022/07/30 07:56:44;;;;;;;24.60;12.38;;;;;;;22.51;78.72;100891.31;8329781;28;20036;-50
2022/07/30 08:00:45;;;;;;;23.52;13.15;;;;;;;22.83;77.71;100901.56;8304456;28;20042;-48
2022/07/30 08:04:45;;;;;;;28.40;13.43;;;;;;;22.57;78.41;100893.22;8302715;28;20037;-51
2022/07/30 08:08:46;;;;;;;24.97;13.87;;;;;;;22.49;79.00;100898.91;8320250;28;20033;-49
2022/07/30 08:12:46;;;;;;;26.40;13.47;;;;;;;23.24;78.28;100903.28;8304593;28;20884;-51
2022/07/30 08:16:46;;;;;;;29.40;13.23;;;;;;;22.99;76.33;100903.03;8315683;28;20276;-49
2022/07/30 08:20:48;;;;;;;26.35;14.10;;;;;;;22.98;77.01;100910.47;8314826;28;20050;-49
2022/07/30 08:24:49;;;;;;;28.30;14.40;;;;;;;22.98;77.48;100902.22;8318520;28;20061;-51
2022/07/30 08:28:49;;;;;;;29.63;14.65;;;;;;;23.23;75.36;100907.09;8316252;28;20041;-49
2022/07/30 08:32:50;;;;;;;24.92;13.25;;;;;;;23.18;75.11;100905.81;8314148;28;20091;-52
2022/07/30 08:36:50;;;;;;;31.93;16.03;;;;;;;23.26;74.62;100907.53;8308138;28;20049;-51
2022/07/30 08:40:54;;;;;;;26.77;13.80;;;;;;;23.63;74.64;100909.59;8301595;28;20256;-49
2022/07/30 08:44:55;;;;;;;28.98;13.98;;;;;;;24.07;70.70;100903.34;8315379;28;20113;-52
2022/07/30 08:48:57;;;;;;;24.30;12.30;;;;;;;23.46;72.49;100913.88;8316068;28;20104;-50
2022/07/30 08:53:00;;;;;;;27.33;13.75;;;;;;;23.87;72.26;100908.03;8313639;28;20037;-49
2022/07/30 08:57:01;;;;;;;21.98;11.38;;;;;;;23.68;70.97;100914.47;8318369;28;20502;-51
2022/07/30 09:01:03;;;;;;;23.23;13.18;;;;;;;23.67;71.07;100915.53;8305686;28;20026;-49
2022/07/30 09:05:05;;;;;;;25.13;12.48;;;;;;;24.08;70.30;100910.56;8315057;28;20045;-49
2022/07/30 09:09:05;;;;;;;22.15;13.27;;;;;;;24.11;68.02;100908.22;8308201;28;20057;-49
2022/07/30 09:13:22;;;;;;;27.45;11.63;;;;;;;24.07;68.16;100917.16;8301908;28;20117;-49
2022/07/30 09:17:22;;;;;;;26.25;11.98;;;;;;;24.13;67.93;100911.63;8308885;28;20489;-48
2022/07/30 09:21:27;;;;;;;27.35;13.60;;;;;;;23.72;67.58;100918.53;8318688;28;20107;-49
2022/07/30 09:25:45;;;;;;;25.83;11.70;;;;;;;23.91;66.19;100912.09;8316304;28;20041;-49
2022/07/30 09:29:56;;;;;;;22.17;12.10;;;;;;;24.25;65.15;100914.53;8313741;28;20080;-49
2022/07/30 09:33:56;;;;;;;23.25;11.65;;;;;;;24.86;66.06;100913.75;8316737;28;20115;-49
2022/07/30 09:37:59;;;;;;;22.50;10.27;;;;;;;25.26;62.59;100908.78;8317505;28;20045;-49
2022/07/30 09:42:01;;;;;;;21.65;11.07;;;;;;;25.50;61.12;100913.47;8299538;28;20285;-49
2022/07/30 09:46:02;;;;;;;14.35;8.32;;;;;;;26.28;59.82;100906.19;8305353;28;20026;-50
2022/07/30 09:50:19;;;;;;;25.58;10.48;;;;;;;26.23;59.76;100906.91;8304969;28;20030;-53
2022/07/30 09:54:20;;;;;;;21.42;8.50;;;;;;;26.38;58.46;100910.09;8314088;28;20041;-50
2022/07/30 09:58:20;;;;;;;13.48;8.00;;;;;;;27.28;58.55;100910.91;8306609;28;20489;-52
2022/07/30 10:02:28;;;;;;;14.13;6.97;;;;;;;28.77;54.77;100903.44;8310969;28;20104;-50
2022/07/30 10:06:35;;;;;;;15.38;6.10;;;;;;;29.93;50.25;100902.38;8302317;28;20088;-52
2022/07/30 10:10:35;;;;;;;24.38;6.38;;;;;;;30.55;48.57;100904.84;8302591;28;20050;-53
2022/07/30 10:14:40;;;;;;;12.70;6.32;;;;;;;30.18;48.44;100908.31;8303158;28;20088;-50
2022/07/30 10:18:42;;;;;;;12.52;6.28;;;;;;;31.51;47.05;100911.13;8297225;28;20125;-51
2022/07/30 10:22:43;;;;;;;15.40;6.72;;;;;;;31.98;46.19;100903.63;8294246;28;20068;-51
2022/07/30 10:26:45;;;;;;;11.75;6.45;;;;;;;32.46;45.81;100907.22;8306141;28;20034;-50
2022/07/30 10:30:49;;;;;;;14.70;5.85;;;;;;;32.63;44.58;100905.91;8311337;28;20073;-50
2022/07/30 10:34:49;;;;;;;8.68;4.57;;;;;;;33.25;43.00;100906.56;8304230;28;20414;-49
2022/07/30 10:38:51;;;;;;;8.95;4.47;;;;;;;32.97;43.16;100904.31;8312469;28;20077;-51
2022/07/30 10:43:17;;;;;;;9.75;4.25;;;;;;;33.14;41.46;100896.47;8304167;28;20072;-52
2022/07/30 10:47:18;;;;;;;10.05;4.38;;;;;;;32.53;43.49;100894.66;8305452;28;20052;-53
2022/07/30 10:51:20;;;;;;;11.30;4.68;;;;;;;33.54;42.93;100898.47;8305010;28;20049;-50
2022/07/30 10:55:24;;;;;;;8.63;4.43;;;;;;;34.41;39.86;100897.97;8312029;28;20378;-50
2022/07/30 10:59:24;;;;;;;12.32;5.57;;;;;;;33.00;41.70;100878.53;8310181;28;20037;-52
2022/07/30 11:03:27;;;;;;;10.23;5.13;;;;;;;32.64;42.44;100876.75;8317064;28;20037;-52
2022/07/30 11:07:29;;;;;;;9.05;5.65;;;;;;;30.80;43.96;100880.00;8314317;28;20280;-53
2022/07/30 11:15:53;;;;;;;9.43;3.92;;;;;;;33.16;40.88;100879.38;8384358;27;20962;-51
2022/07/30 11:20:09;;;;;;;6.32;3.80;;;;;;;32.64;39.06;100882.38;8337300;28;20048;-51
2022/07/30 11:24:44;;;;;;;7.43;3.55;;;;;;;33.18;41.01;100889.16;8327913;28;20053;-52
2022/07/30 11:28:45;;;;;;;6.90;3.67;;;;;;;32.11;40.66;100888.31;8323694;28;20038;-49
2022/07/30 11:32:48;;;;;;;10.25;4.65;;;;;;;34.41;40.05;100881.09;8319622;28;20033;-51
2022/07/30 11:37:05;;;;;;;8.70;4.67;;;;;;;32.94;40.62;100879.66;8325305;28;20038;-51
2022/07/30 11:41:08;;;;;;;6.90;4.35;;;;;;;33.20;40.46;100878.53;8328660;28;20453;-50
2022/07/30 11:49:34;;;;;;;6.28;3.70;;;;;;;33.99;38.79;100877.91;8390196;27;20462;-52
2022/07/30 11:53:38;;;;;;;11.65;3.72;;;;;;;33.42;40.51;100876.31;8359378;28;20033;-52
2022/07/30 11:57:39;;;;;;;8.68;4.63;;;;;;;33.93;40.82;100877.91;8366747;28;20043;-50
2022/07/30 12:01:40;;;;;;;10.48;3.92;;;;;;;32.30;41.09;100869.91;8386470;28;20074;-50
2022/07/30 12:05:42;;;;;;;6.80;3.70;;;;;;;33.45;39.86;100872.94;8386687;28;20029;-49
2022/07/30 12:09:42;;;;;;;8.68;4.78;;;;;;;32.72;42.07;100867.81;8361871;28;20041;-49
2022/07/30 12:13:54;;;;;;;7.57;3.83;;;;;;;30.74;44.44;100864.31;8359619;28;20447;-49
2022/07/30 12:17:54;;;;;;;7.07;2.75;;;;;;;28.23;45.90;100861.19;8380511;28;20033;-50
2022/07/30 12:21:58;;;;;;;4.82;2.25;;;;;;;27.54;46.48;100861.28;8383602;28;20063;-48
2022/07/30 12:25:59;;;;;;;6.15;2.25;;;;;;;27.14;47.53;100862.25;8384058;28;20114;-49
2022/07/30 12:30:00;;;;;;;6.18;2.50;;;;;;;27.27;48.18;100856.47;8374814;28;20086;-52
2022/07/30 12:34:00;;;;;;;4.38;2.60;;;;;;;28.25;47.65;100863.72;8382530;28;20041;-48
2022/07/30 12:38:03;;;;;;;8.10;3.90;;;;;;;28.07;49.06;100858.31;8382477;28;20040;-49
2022/07/30 12:42:03;;;;;;;8.45;3.70;;;;;;;27.96;49.60;100860.03;8374691;28;20116;-51
2022/07/30 12:46:04;;;;;;;6.07;3.25;;;;;;;28.25;48.91;100858.16;8382983;28;20082;-49
2022/07/30 12:50:16;;;;;;;9.02;3.47;;;;;;;28.33;48.85;100849.41;8382777;28;20040;-49
2022/07/30 12:54:18;;;;;;;4.97;3.17;;;;;;;27.65;48.80;100852.09;8368702;28;20396;-48
2022/07/30 12:58:19;;;;;;;9.65;4.03;;;;;;;28.28;48.66;100860.44;8347416;28;20029;-53
2022/07/30 13:02:35;;;;;;;11.57;3.33;;;;;;;28.53;47.68;100845.13;8355857;28;20079;-49
2022/07/30 13:06:36;;;;;;;5.97;2.78;;;;;;;28.32;48.63;100844.94;8354829;28;20037;-49
2022/07/30 13:10:37;;;;;;;5.63;2.90;;;;;;;27.86;49.51;100843.16;8360396;28;20037;-49
2022/07/30 13:14:38;;;;;;;8.32;3.28;;;;;;;27.72;49.49;100843.66;8360148;28;20067;-48
2022/07/30 13:18:39;;;;;;;4.20;3.00;;;;;;;28.18;49.49;100849.13;8359991;28;20063;-49
2022/07/30 13:22:40;;;;;;;7.55;2.85;;;;;;;27.95;48.04;100847.25;8359636;28;20036;-49
2022/07/30 13:26:40;;;;;;;8.85;2.35;;;;;;;28.14;50.02;100842.34;8359997;28;20098;-50
2022/07/30 13:30:41;;;;;;;4.93;2.67;;;;;;;28.07;49.23;100838.88;8358567;28;20041;-48
2022/07/30 13:34:42;;;;;;;4.45;2.25;;;;;;;28.00;48.84;100833.44;8358895;28;20051;-51
2022/07/30 13:38:44;;;;;;;4.93;2.33;;;;;;;28.40;48.49;100834.25;8376666;28;20050;-48
2022/07/30 13:42:44;;;;;;;3.72;2.25;;;;;;;28.61;48.81;100843.88;8363500;28;20037;-48
2022/07/30 13:46:45;;;;;;;4.18;2.33;;;;;;;27.91;49.16;100834.09;8359530;28;20532;-49
2022/07/30 13:50:45;;;;;;;7.17;2.10;;;;;;;27.64;48.92;100825.41;8359221;28;20040;-49
2022/07/30 13:54:46;;;;;;;4.72;1.90;;;;;;;27.35;50.45;100840.28;8358523;28;20750;-50
2022/07/30 13:58:46;;;;;;;5.80;1.47;;;;;;;27.77;50.23;100832.63;8352498;28;20497;-48
2022/07/30 14:02:47;;;;;;;2.22;1.08;;;;;;;27.53;49.86;100831.00;8358912;28;20280;-48
2022/07/30 14:06:47;;;;;;;6.22;1.30;;;;;;;27.62;49.39;100816.47;8352285;28;20041;-49
2022/07/30 14:10:48;;;;;;;2.47;1.20;;;;;;;27.19;50.73;100817.91;8358409;28;20045;-49
2022/07/30 14:14:48;;;;;;;1.13;0.80;;;;;;;27.54;49.38;100811.28;8357916;28;20694;-50
2022/07/30 14:18:48;;;;;;;2.43;0.60;;;;;;;27.50;47.00;100814.81;8358449;28;20044;-48
2022/07/30 14:22:49;;;;;;;1.47;0.77;;;;;;;26.99;48.76;100812.75;8357700;28;20327;-52
2022/07/30 14:26:50;;;;;;;2.78;0.80;;;;;;;27.08;48.88;100816.00;8358097;28;20044;-48
2022/07/30 14:30:50;;;;;;;2.28;0.82;;;;;;;27.27;49.00;100814.81;8357984;28;20037;-48
2022/07/30 14:34:51;;;;;;;4.20;0.97;;;;;;;27.08;48.70;100805.72;8357864;28;20033;-48
2022/07/30 14:38:51;;;;;;;3.95;1.08;;;;;;;26.71;48.61;100810.63;8357098;28;20273;-49
2022/07/30 14:42:52;;;;;;;2.77;1.40;;;;;;;27.30;49.53;100803.22;8357362;28;20037;-52
2022/07/30 14:46:52;;;;;;;1.48;0.80;;;;;;;27.02;48.89;100800.31;8357030;28;20079;-49
2022/07/30 14:50:52;;;;;;;1.35;0.90;;;;;;;27.47;49.43;100798.63;8357681;28;20425;-49
2022/07/30 14:54:53;;;;;;;5.17;1.07;;;;;;;27.81;49.83;100794.94;8356048;28;20041;-48
2022/07/30 14:58:53;;;;;;;5.75;1.13;;;;;;;27.77;49.23;100807.59;8356812;28;20613;-49
2022/07/30 15:02:54;;;;;;;1.50;0.80;;;;;;;27.75;49.53;100809.81;8355269;28;20397;-49
2022/07/30 15:06:54;;;;;;;3.72;0.93;;;;;;;27.72;49.54;100808.34;8355649;28;20124;-51
2022/07/30 15:10:55;;;;;;;4.25;0.98;;;;;;;27.59;49.18;100807.75;8356422;28;20025;-48
2022/07/30 15:14:55;;;;;;;3.50;1.55;;;;;;;28.02;49.30;100810.94;8356630;28;20057;-48
2022/07/30 15:18:56;;;;;;;4.50;1.40;;;;;;;27.80;48.52;100804.34;8356680;28;20124;-48
2022/07/30 15:22:57;;;;;;;11.40;1.63;;;;;;;27.96;49.84;100792.50;8355619;28;20356;-49
2022/07/30 15:26:57;;;;;;;8.40;1.20;;;;;;;27.74;49.21;100805.31;8356638;28;20090;-48
2022/07/30 15:30:58;;;;;;;2.45;1.05;;;;;;;27.57;49.49;100790.50;8355944;28;20495;-48
2022/07/30 15:34:58;;;;;;;11.10;1.17;;;;;;;27.73;49.49;100796.16;8356776;28;20040;-49
2022/07/30 15:38:59;;;;;;;2.15;1.13;;;;;;;27.88;49.56;100795.66;8356035;28;20106;-50
2022/07/30 15:42:59;;;;;;;6.87;1.57;;;;;;;27.84;49.50;100794.44;8356179;28;20526;-49
2022/07/30 15:47:00;;;;;;;4.20;1.10;;;;;;;27.82;50.74;100785.50;8354367;28;20291;-49
2022/07/30 15:51:02;;;;;;;2.95;1.20;;;;;;;27.87;50.57;100791.19;8338213;28;20063;-49
2022/07/30 15:55:04;;;;;;;5.18;1.30;;;;;;;27.79;50.66;100786.84;8344774;28;20037;-48
2022/07/30 15:59:04;;;;;;;4.20;1.38;;;;;;;27.50;51.08;100784.25;8355537;28;20497;-49
2022/07/30 16:03:05;;;;;;;6.22;1.63;;;;;;;27.77;50.92;100793.72;8355600;28;20052;-49
2022/07/30 16:07:06;;;;;;;6.80;1.80;;;;;;;27.60;51.94;100790.03;8355949;28;20044;-51
2022/07/30 16:11:07;;;;;;;3.13;1.27;;;;;;;27.54;51.07;100782.66;8355290;28;20654;-49
2022/07/30 16:15:08;;;;;;;3.20;1.17;;;;;;;27.54;52.27;100788.22;8356001;28;20389;-51
2022/07/30 16:19:08;;;;;;;3.92;1.55;;;;;;;27.46;52.21;100780.25;8354969;28;20303;-49
2022/07/30 16:23:08;;;;;;;2.28;1.65;;;;;;;27.36;52.01;100785.59;8355705;28;20033;-49
2022/07/30 16:27:09;;;;;;;4.70;1.60;;;;;;;27.14;53.12;100787.28;8355897;28;20030;-51
2022/07/30 16:31:09;;;;;;;7.57;1.73;;;;;;;27.16;52.76;100771.19;8354456;28;20687;-48
2022/07/30 16:35:10;;;;;;;3.53;1.55;;;;;;;27.33;53.51;100780.53;8356136;28;20847;-48
2022/07/30 16:39:10;;;;;;;7.88;2.00;;;;;;;27.27;53.22;100775.94;8361181;28;20513;-48
2022/07/30 16:43:10;;;;;;;7.07;1.90;;;;;;;27.20;52.61;100770.47;8359934;28;20044;-48
2022/07/30 16:47:11;;;;;;;2.42;1.30;;;;;;;27.24;53.43;100770.84;8353469;28;20841;-49
2022/07/30 16:51:11;;;;;;;5.18;1.75;;;;;;;27.31;53.20;100771.56;8354520;28;20094;-50
2022/07/30 16:55:12;;;;;;;5.38;1.95;;;;;;;27.20;53.55;100758.53;8353819;28;20048;-52
2022/07/30 16:59:13;;;;;;;8.48;1.70;;;;;;;27.44;53.11;100765.78;8353832;28;20116;-50
2022/07/30 17:03:13;;;;;;;3.97;1.45;;;;;;;27.37;52.87;100765.03;8353972;28;20525;-48
2022/07/30 17:07:14;;;;;;;4.45;1.48;;;;;;;27.35;52.71;100767.25;8353476;28;20479;-49
2022/07/30 17:11:15;;;;;;;4.05;1.33;;;;;;;27.30;50.95;100765.19;8353170;28;20037;-49
2022/07/30 17:15:15;;;;;;;2.08;1.60;;;;;;;27.21;51.05;100766.63;8352681;28;20076;-49
2022/07/30 17:19:16;;;;;;;3.50;1.25;;;;;;;27.23;51.71;100763.59;8353810;28;20033;-50
2022/07/30 17:23:16;;;;;;;5.70;1.60;;;;;;;27.12;51.83;100761.66;8350718;28;20102;-51
2022/07/30 17:27:16;;;;;;;2.43;1.33;;;;;;;27.12;52.18;100764.44;8350727;28;20048;-51
2022/07/30 17:31:17;;;;;;;3.80;1.60;;;;;;;26.97;52.80;100773.25;8351280;28;20283;-49
2022/07/30 17:35:18;;;;;;;2.60;1.10;;;;;;;26.88;53.11;100771.94;8350890;28;20051;-49
2022/07/30 17:39:20;;;;;;;9.70;1.83;;;;;;;26.83;53.08;100776.53;8350871;28;20037;-50
2022/07/30 17:43:21;;;;;;;3.50;1.42;;;;;;;26.87;54.07;100774.94;8347763;28;20032;-51
2022/07/30 17:47:21;;;;;;;3.45;1.70;;;;;;;26.77;53.32;100770.84;8351073;28;20048;-49
2022/07/30 17:51:22;;;;;;;1.73;1.40;;;;;;;26.60;53.60;100769.81;8349909;28;20098;-49
2022/07/30 17:55:22;;;;;;;3.30;1.25;;;;;;;26.57;53.22;100781.41;8350688;28;20041;-49
2022/07/30 17:59:23;;;;;;;2.72;1.33;;;;;;;26.48;54.04;100781.97;8349235;28;20417;-49
2022/07/30 18:03:24;;;;;;;12.50;2.13;;;;;;;26.23;54.40;100778.53;8350222;28;20731;-49
2022/07/30 18:07:25;;;;;;;2.90;1.63;;;;;;;26.21;54.52;100786.22;8345782;28;20303;-50
2022/07/30 18:11:26;;;;;;;2.08;1.30;;;;;;;26.10;54.86;100787.06;8350398;28;20044;-49
2022/07/30 18:15:27;;;;;;;2.58;1.50;;;;;;;26.01;54.76;100792.06;8346533;28;20362;-51
2022/07/30 18:19:27;;;;;;;2.05;1.70;;;;;;;25.94;54.84;100785.72;8347624;28;20552;-49
2022/07/30 18:23:28;;;;;;;6.00;1.83;;;;;;;25.92;55.05;100785.09;8348922;28;20374;-50
2022/07/30 18:27:29;;;;;;;4.53;1.35;;;;;;;25.90;55.29;100790.06;8349737;28;20321;-49
2022/07/30 18:31:29;;;;;;;4.30;1.67;;;;;;;25.92;55.08;100787.06;8346496;28;20573;-53
2022/07/30 18:35:29;;;;;;;7.75;1.85;;;;;;;25.91;55.23;100797.28;8349084;28;20064;-49
2022/07/30 18:39:30;;;;;;;3.83;1.70;;;;;;;25.88;55.30;100803.28;8348227;28;20049;-50
2022/07/30 18:43:31;;;;;;;6.60;1.65;;;;;;;25.87;55.48;100806.28;8347845;28;20033;-48